createdAt,value
2022-11-21T00:02:32.322Z,97967.56
2022-11-21T00:07:37.100Z,97944.41
2022-11-21T00:12:39.961Z,97932.22
2022-11-21T00:17:42.971Z,97929.31
2022-11-21T00:22:47.469Z,97922.28
2022-11-21T00:27:50.462Z,97906.00
2022-11-21T00:32:53.495Z,97893.94
2022-11-21T00:37:57.802Z,97877.84
2022-11-21T00:43:03.629Z,97864.78
2022-11-21T00:48:07.481Z,97856.84
2022-11-21T00:53:11.747Z,97843.06
2022-11-21T00:58:14.700Z,97834.69
2022-11-21T01:03:17.806Z,97820.03
2022-11-21T01:08:22.153Z,97796.09
2022-11-21T01:13:25.354Z,97791.38
2022-11-21T01:18:28.439Z,97782.91
2022-11-21T01:23:33.244Z,97780.47
2022-11-21T01:28:36.391Z,97775.38
2022-11-21T01:33:39.811Z,97763.03
2022-11-21T01:38:46.015Z,97764.34
2022-11-21T01:43:49.394Z,97759.84
2022-11-21T01:48:56.421Z,97755.94
2022-11-21T01:54:04.285Z,97758.19
2022-11-21T01:59:12.608Z,97749.06
2022-11-21T02:04:15.647Z,97742.44
2022-11-21T02:09:21.022Z,97737.16
2022-11-21T02:14:24.665Z,97741.88
2022-11-21T02:19:36.691Z,97735.13
2022-11-21T02:24:46.917Z,97725.56
2022-11-21T02:29:51.194Z,97725.47
2022-11-21T02:34:54.073Z,97711.34
2022-11-21T02:40:00.063Z,97703.97
2022-11-21T02:45:11.727Z,97686.66
2022-11-21T02:50:16.626Z,97684.34
2022-11-21T02:55:19.562Z,97689.06
2022-11-21T03:00:24.756Z,97689.53
2022-11-21T03:05:27.865Z,97684.59
2022-11-21T03:10:30.772Z,97681.34
2022-11-21T03:15:36.450Z,97678.88
2022-11-21T03:20:39.686Z,97674.41
2022-11-21T03:25:42.511Z,97660.72
2022-11-21T03:30:46.738Z,97652.91
2022-11-21T03:35:49.622Z,97638.59
2022-11-21T03:40:52.535Z,97637.50
2022-11-21T03:45:57.465Z,97636.34
2022-11-21T03:51:00.449Z,97642.41
2022-11-21T03:56:03.329Z,97639.66
2022-11-21T04:01:07.675Z,97633.56
2022-11-21T04:06:10.783Z,97634.72
2022-11-21T04:11:14.173Z,97626.25
2022-11-21T04:16:18.499Z,97631.28
2022-11-21T04:21:21.388Z,97625.00
2022-11-21T04:26:24.338Z,97612.38
2022-11-21T04:31:28.555Z,97613.97
2022-11-21T04:36:31.552Z,97604.25
2022-11-21T04:41:34.455Z,97612.34
2022-11-21T04:46:38.717Z,97605.59
2022-11-21T04:51:41.633Z,97602.88
2022-11-21T04:56:44.502Z,97578.44
2022-11-21T05:01:49.733Z,97588.84
2022-11-21T05:06:52.782Z,97589.25
2022-11-21T05:12:13.228Z,97589.09
2022-11-21T05:17:17.670Z,97589.16
2022-11-21T05:22:20.567Z,97589.16
2022-11-21T05:27:23.473Z,97594.16
2022-11-21T05:32:27.705Z,97598.16
2022-11-21T05:37:30.588Z,97606.72
2022-11-21T05:42:51.123Z,97603.44
2022-11-21T05:47:55.372Z,97619.63
2022-11-21T05:53:02.450Z,97622.19
2022-11-21T05:58:05.311Z,97616.00
2022-11-21T06:03:30.637Z,97627.53
2022-11-21T06:08:35.765Z,97643.16
2022-11-21T06:13:38.981Z,97648.75
2022-11-21T06:18:45.124Z,97668.69
2022-11-21T06:23:49.233Z,97676.25
2022-11-21T06:28:52.554Z,97678.41
2022-11-21T06:33:57.993Z,97692.38
2022-11-21T06:39:00.930Z,97710.69
2022-11-21T06:44:03.871Z,97719.47
2022-11-21T06:49:08.099Z,97725.06
2022-11-21T06:54:16.273Z,97738.03
2022-11-21T06:59:19.812Z,97748.16
2022-11-21T07:04:24.179Z,97758.25
2022-11-21T07:09:34.347Z,97764.41
2022-11-21T07:14:37.338Z,97768.84
2022-11-21T07:19:41.834Z,97784.09
2022-11-21T07:24:44.773Z,97793.44
2022-11-21T07:29:47.636Z,97814.66
2022-11-21T07:34:51.926Z,97834.44
2022-11-21T07:39:54.850Z,97842.63
2022-11-21T07:44:57.747Z,97845.38
2022-11-21T07:50:02.010Z,97852.03
2022-11-21T07:55:05.882Z,97859.06
2022-11-21T08:00:10.306Z,97865.06
2022-11-21T08:05:14.711Z,97884.91
2022-11-21T08:10:18.538Z,97899.59
2022-11-21T08:15:21.457Z,97910.22
2022-11-21T08:20:25.980Z,97910.31
2022-11-21T08:25:28.985Z,97918.28
2022-11-21T08:30:32.243Z,97927.47
2022-11-21T08:35:38.347Z,97946.22
2022-11-21T08:40:41.530Z,97964.75
2022-11-21T08:45:44.971Z,97961.03
2022-11-21T08:50:49.258Z,97974.94
2022-11-21T08:55:52.094Z,97996.16
2022-11-21T09:00:55.027Z,97996.63
2022-11-21T09:05:59.852Z,97997.25
2022-11-21T09:11:05.461Z,98000.38
2022-11-21T09:16:26.034Z,98010.63
2022-11-21T09:21:30.247Z,98012.78
2022-11-21T09:26:33.106Z,98023.34
2022-11-21T09:31:36.066Z,98023.28
2022-11-21T09:36:40.306Z,98030.78
2022-11-21T09:41:59.524Z,98038.81
2022-11-21T09:47:12.186Z,98034.09
2022-11-21T09:52:22.215Z,98035.16
2022-11-21T09:57:32.062Z,98035.16
2022-11-21T10:02:37.607Z,98046.44
2022-11-21T10:07:43.535Z,98048.31
2022-11-21T10:13:02.825Z,98055.69
2022-11-21T10:18:24.970Z,98053.97
2022-11-21T10:23:48.675Z,98059.47
2022-11-21T10:28:56.568Z,98048.47
2022-11-21T10:34:01.598Z,98065.41
2022-11-21T10:39:13.821Z,98066.28
2022-11-21T10:44:43.939Z,98077.66
2022-11-21T10:49:48.343Z,98072.09
2022-11-21T10:55:06.974Z,98078.09
2022-11-21T11:00:24.921Z,98077.69
2022-11-21T11:05:29.172Z,98070.03
2022-11-21T11:10:35.234Z,98067.25
2022-11-21T11:15:52.889Z,98062.44
2022-11-21T11:21:13.123Z,98067.88
2022-11-21T11:26:28.889Z,98079.34
2022-11-21T11:31:41.432Z,98068.53
2022-11-21T11:37:02.040Z,98070.66
2022-11-21T11:42:53.528Z,98057.97
2022-11-21T11:47:59.152Z,98061.63
2022-11-21T11:53:08.683Z,98052.59
2022-11-21T11:58:22.817Z,98052.88
2022-11-21T12:03:32.918Z,98051.28
2022-11-21T12:08:42.897Z,98051.44
2022-11-21T12:13:49.494Z,98056.84
2022-11-21T12:18:57.433Z,98058.44
2022-11-21T12:24:04.209Z,98051.81
2022-11-21T12:29:37.089Z,98056.94
2022-11-21T12:35:06.825Z,98059.16
2022-11-21T12:40:23.946Z,98050.44
2022-11-21T12:45:32.653Z,98053.63
2022-11-21T12:51:07.847Z,98053.63
2022-11-21T12:56:20.628Z,98052.34
2022-11-21T13:01:35.495Z,98048.25
2022-11-21T13:06:41.719Z,98051.16
2022-11-21T13:12:01.586Z,98046.56
2022-11-21T13:17:15.457Z,98055.03
2022-11-21T13:22:53.339Z,98044.72
2022-11-21T13:27:56.264Z,98034.44
2022-11-21T13:33:00.653Z,98029.44
2022-11-21T13:38:04.764Z,98031.56
2022-11-21T13:43:33.363Z,98030.13
2022-11-21T13:49:06.593Z,98017.50
2022-11-21T13:54:31.528Z,98010.03
2022-11-21T13:59:55.668Z,97999.91
2022-11-21T14:05:15.092Z,98005.44
2022-11-21T14:10:33.930Z,98005.59
2022-11-21T14:15:47.278Z,98004.03
2022-11-21T14:20:56.884Z,98002.84
2022-11-21T14:26:03.695Z,98011.97
2022-11-21T14:31:08.296Z,98008.34
2022-11-21T14:36:15.848Z,98001.81
2022-11-21T14:41:32.749Z,97990.97
2022-11-21T14:46:37.644Z,97989.16
2022-11-21T14:51:42.529Z,98002.34
2022-11-21T14:56:49.313Z,98005.00
2022-11-21T15:02:01.753Z,97995.31
2022-11-21T15:07:06.219Z,97987.75
2022-11-21T15:12:11.666Z,97984.97
2022-11-21T15:17:20.500Z,97987.38
2022-11-21T15:22:30.804Z,97974.94
2022-11-21T15:27:35.222Z,97968.19
2022-11-21T15:33:09.454Z,97976.94
2022-11-21T15:38:34.039Z,97977.84
2022-11-21T15:43:40.762Z,97974.63
2022-11-21T15:48:47.096Z,97966.09
2022-11-21T15:53:52.337Z,97968.22
2022-11-21T15:58:55.323Z,97956.34
2022-11-21T16:04:00.154Z,97953.94
2022-11-21T16:09:05.181Z,97931.91
2022-11-21T16:14:10.034Z,97939.88
2022-11-21T16:19:14.135Z,97924.94
2022-11-21T16:24:18.892Z,97922.97
2022-11-21T16:29:22.092Z,97915.69
2022-11-21T16:34:25.103Z,97907.81
2022-11-21T16:39:29.694Z,97900.00
2022-11-21T16:44:32.931Z,97899.13
2022-11-21T16:49:35.840Z,97895.91
2022-11-21T16:54:40.705Z,97879.28
2022-11-21T16:59:43.569Z,97884.13
2022-11-21T17:04:47.055Z,97871.91
2022-11-21T17:09:52.421Z,97871.72
2022-11-21T17:14:55.351Z,97861.84
2022-11-21T17:19:58.355Z,97858.78
2022-11-21T17:25:03.289Z,97859.50
2022-11-21T17:30:07.234Z,97849.63
2022-11-21T17:35:11.263Z,97857.31
2022-11-21T17:40:15.723Z,97868.97
2022-11-21T17:45:18.658Z,97871.53
2022-11-21T17:50:22.166Z,97871.03
2022-11-21T17:55:26.453Z,97866.84
2022-11-21T18:00:29.441Z,97865.59
2022-11-21T18:05:32.318Z,97851.53
2022-11-21T18:10:43.231Z,97851.53
2022-11-21T18:15:48.049Z,97837.94
2022-11-21T18:20:51.461Z,97842.38
2022-11-21T18:25:55.706Z,97839.34
2022-11-21T18:31:06.326Z,97828.59
2022-11-21T18:36:10.813Z,97824.22
2022-11-21T18:41:17.133Z,97820.81
2022-11-21T18:46:21.102Z,97796.72
2022-11-21T18:51:25.928Z,97780.88
2022-11-21T18:56:31.096Z,97755.09
2022-11-21T19:01:35.459Z,97755.88
2022-11-21T19:06:38.536Z,97745.16
2022-11-21T19:11:42.795Z,97721.97
2022-11-21T19:16:45.643Z,97734.75
2022-11-21T19:21:48.848Z,97712.84
2022-11-21T19:26:53.595Z,97701.94
2022-11-21T19:31:56.726Z,97707.53
2022-11-21T19:36:59.606Z,97697.16
2022-11-21T19:42:03.876Z,97700.50
2022-11-21T19:47:06.948Z,97700.09
2022-11-21T19:52:10.009Z,97710.53
2022-11-21T19:57:14.342Z,97707.03
2022-11-21T20:02:19.174Z,97700.78
2022-11-21T20:07:22.313Z,97706.09
2022-11-21T20:12:26.647Z,97710.63
2022-11-21T20:17:29.907Z,97714.81
2022-11-21T20:22:32.771Z,97713.41
2022-11-21T20:27:37.037Z,97709.03
2022-11-21T20:32:41.027Z,97717.72
2022-11-21T20:37:43.993Z,97721.41
2022-11-21T20:42:48.262Z,97705.66
2022-11-21T20:47:51.120Z,97711.69
2022-11-21T20:53:50.175Z,97704.44
2022-11-21T20:58:18.316Z,97696.78
2022-11-21T21:03:21.376Z,97695.47
2022-11-21T21:08:24.956Z,97690.84
2022-11-21T21:13:29.374Z,97693.00
2022-11-21T21:18:33.762Z,97703.56
2022-11-21T21:23:37.818Z,97702.81
2022-11-21T21:28:42.817Z,97700.09
2022-11-21T21:33:46.173Z,97695.66
2022-11-21T21:38:51.754Z,97699.56
2022-11-21T21:43:57.236Z,97700.41
2022-11-21T21:49:00.227Z,97703.59
2022-11-21T21:54:03.183Z,97719.00
2022-11-21T21:59:07.491Z,97712.34
2022-11-21T22:04:12.498Z,97706.81
2022-11-21T22:09:15.499Z,97711.16
2022-11-21T22:14:19.813Z,97698.53
2022-11-21T22:19:23.898Z,97694.16
2022-11-21T22:24:27.577Z,97681.88
2022-11-21T22:29:32.254Z,97690.94
2022-11-21T22:34:35.753Z,97672.13
2022-11-21T22:39:38.688Z,97666.50
2022-11-21T22:44:42.956Z,97651.22
2022-11-21T22:49:45.849Z,97631.50
2022-11-21T22:54:48.798Z,97633.22
2022-11-21T22:59:53.391Z,97621.72
2022-11-21T23:04:56.287Z,97623.22
2022-11-21T23:09:59.810Z,97605.38
2022-11-21T23:15:04.079Z,97604.13
2022-11-21T23:20:07.768Z,97608.94
2022-11-21T23:25:10.832Z,97604.69
2022-11-21T23:30:17.120Z,97602.53
2022-11-21T23:35:20.048Z,97594.84
2022-11-21T23:40:24.033Z,97594.91
2022-11-21T23:45:28.345Z,97597.72
2022-11-21T23:50:31.230Z,97586.94
2022-11-21T23:55:34.086Z,97581.09
